Time;durP1;ratioP1;P1;durP2;ratioP2;P2;SDS_P1;SDS_P2;PMS_P1;PMS_P2;Temp;Humidity;BMP_temperature;BMP_pressure;BME280_temperature;BME280_humidity;BME280_pressure;Samples;Min_cycle;Max_cycle;Signal;HPM_P1;HPM_P2
2021/01/25 00:01:53;;;;;;;11.60;5.00;;;;;;;-3.50;99.07;94818.22;4986310;28;20042;-46
2021/01/25 00:04:20;;;;;;;12.43;5.45;;;;;;;-3.40;98.45;94811.53;4974249;28;20034;-46
2021/01/25 00:06:49;;;;;;;10.93;5.97;;;;;;;-3.38;98.52;94819.97;4984066;28;20058;-46
2021/01/25 00:09:16;;;;;;;9.45;4.53;;;;;;;-3.33;98.19;94821.44;4987791;28;20106;-46
2021/01/25 00:11:43;;;;;;;7.78;4.32;;;;;;;-3.36;97.74;94814.72;4960033;28;20061;-46
2021/01/25 00:14:10;;;;;;;6.88;4.03;;;;;;;-3.31;97.59;94827.31;4978825;28;20042;-50
2021/01/25 00:16:38;;;;;;;11.32;4.43;;;;;;;-3.22;96.29;94829.28;4984684;28;20038;-47
2021/01/25 00:19:05;;;;;;;9.07;4.55;;;;;;;-3.19;96.02;94827.31;4975027;28;20046;-47
2021/01/25 00:21:32;;;;;;;10.32;5.20;;;;;;;-3.26;96.45;94830.41;4985656;28;20050;-46
2021/01/25 00:23:59;;;;;;;10.05;5.63;;;;;;;-3.24;94.77;94831.94;4979275;28;20031;-48
2021/01/25 00:26:26;;;;;;;9.05;5.00;;;;;;;-3.29;94.95;94821.13;4980152;28;20117;-46
2021/01/25 00:28:53;;;;;;;10.45;5.20;;;;;;;-3.28;94.31;94825.34;4974498;28;20077;-47
2021/01/25 00:31:20;;;;;;;10.82;4.65;;;;;;;-3.25;94.15;94824.31;4986735;28;20054;-49
2021/01/25 00:33:48;;;;;;;9.25;3.92;;;;;;;-3.26;93.97;94820.94;4976839;28;20279;-48
2021/01/25 00:36:15;;;;;;;5.60;3.42;;;;;;;-3.32;93.48;94826.47;4985655;28;20461;-47
2021/01/25 00:38:42;;;;;;;6.22;3.75;;;;;;;-3.37;93.46;94819.06;4977418;28;20050;-47
2021/01/25 00:41:09;;;;;;;7.97;4.03;;;;;;;-3.46;94.00;94824.81;4985664;28;20038;-46
2021/01/25 00:43:36;;;;;;;7.20;4.03;;;;;;;-3.44;95.17;94830.69;4980049;28;20054;-46
2021/01/25 00:46:04;;;;;;;9.50;4.57;;;;;;;-3.41;94.52;94832.22;4986745;28;20054;-46
2021/01/25 00:48:31;;;;;;;11.35;4.97;;;;;;;-3.54;94.51;94815.91;4966414;28;20179;-45
2021/01/25 00:50:59;;;;;;;8.63;4.15;;;;;;;-3.53;95.29;94826.13;4978308;28;20142;-47
2021/01/25 00:53:26;;;;;;;7.90;3.58;;;;;;;-3.58;96.92;94829.03;4978930;28;20529;-50
2021/01/25 00:55:53;;;;;;;7.82;4.53;;;;;;;-3.58;99.17;94829.03;4977507;28;20130;-48
2021/01/25 00:58:23;;;;;;;10.67;4.50;;;;;;;-3.58;100.00;94818.72;4983777;28;20046;-46
2021/01/25 01:00:50;;;;;;;7.55;4.07;;;;;;;-3.55;100.00;94819.44;4988107;28;20293;-47
2021/01/25 01:03:17;;;;;;;13.75;5.18;;;;;;;-3.54;99.71;94818.50;4975146;28;20122;-46
2021/01/25 01:05:44;;;;;;;14.05;7.10;;;;;;;-3.63;98.58;94815.59;4982267;28;20117;-52
2021/01/25 01:08:12;;;;;;;10.27;4.88;;;;;;;-3.60;98.54;94809.44;4982279;28;20038;-45
2021/01/25 01:10:39;;;;;;;8.10;4.20;;;;;;;-3.61;99.80;94807.78;4968917;28;20105;-48
2021/01/25 01:13:07;;;;;;;8.93;4.60;;;;;;;-3.64;100.00;94810.56;4978878;28;20053;-47
2021/01/25 01:15:35;;;;;;;6.40;3.63;;;;;;;-3.61;99.91;94805.22;4985687;28;20504;-46
2021/01/25 01:18:02;;;;;;;7.85;4.00;;;;;;;-3.71;99.34;94804.16;4985566;28;20057;-47
2021/01/25 01:20:29;;;;;;;7.03;4.22;;;;;;;-3.76;99.73;94801.03;4984233;28;20046;-46
2021/01/25 01:22:56;;;;;;;7.57;3.75;;;;;;;-3.97;100.00;94798.91;4984960;28;20054;-46
2021/01/25 01:25:24;;;;;;;7.07;3.78;;;;;;;-4.00;100.00;94798.28;4978750;28;20051;-47
2021/01/25 01:27:51;;;;;;;6.10;3.58;;;;;;;-4.14;100.00;94794.84;4973679;28;20074;-47
2021/01/25 01:30:19;;;;;;;8.32;3.70;;;;;;;-4.04;100.00;94789.94;4979980;28;20536;-45
2021/01/25 01:32:46;;;;;;;9.45;3.90;;;;;;;-4.08;100.00;94789.31;4983765;28;20513;-47
2021/01/25 01:35:13;;;;;;;5.35;3.53;;;;;;;-4.18;100.00;94793.38;4974154;28;20698;-46
2021/01/25 01:37:40;;;;;;;7.60;3.63;;;;;;;-4.21;100.00;94787.59;4979756;28;20576;-47
2021/01/25 01:40:09;;;;;;;5.28;3.50;;;;;;;-4.22;100.00;94783.41;4983127;28;20062;-45
2021/01/25 01:42:38;;;;;;;9.45;4.03;;;;;;;-4.23;100.00;94780.00;4985640;28;20509;-50
2021/01/25 01:45:06;;;;;;;8.23;3.65;;;;;;;-4.19;100.00;94775.47;4979444;28;20053;-45
2021/01/25 01:47:35;;;;;;;8.20;3.67;;;;;;;-4.32;100.00;94776.25;4973858;28;20082;-44
2021/01/25 01:50:04;;;;;;;6.18;3.50;;;;;;;-4.40;100.00;94768.19;4973093;28;20522;-46
2021/01/25 01:52:32;;;;;;;5.68;3.80;;;;;;;-4.65;100.00;94776.59;4975388;28;20560;-45
2021/01/25 01:55:01;;;;;;;9.48;4.18;;;;;;;-4.81;100.00;94771.56;4984292;28;20145;-46
2021/01/25 01:57:30;;;;;;;8.52;4.00;;;;;;;-4.78;100.00;94778.28;4986820;28;20059;-45
2021/01/25 01:59:58;;;;;;;9.43;3.50;;;;;;;-4.86;100.00;94772.75;4972479;28;20117;-46
2021/01/25 02:02:25;;;;;;;9.75;4.03;;;;;;;-5.02;100.00;94776.28;4979740;28;20102;-48
2021/01/25 02:04:52;;;;;;;7.40;3.40;;;;;;;-5.09;100.00;94782.69;4977623;28;20113;-44
2021/01/25 02:07:20;;;;;;;8.27;4.05;;;;;;;-5.11;100.00;94769.09;4976602;28;20066;-47
2021/01/25 02:09:48;;;;;;;5.85;3.35;;;;;;;-5.20;100.00;94767.06;4984158;28;20050;-46
2021/01/25 02:12:17;;;;;;;6.25;3.83;;;;;;;-5.35;100.00;94770.56;4972289;28;20039;-45
2021/01/25 02:14:45;;;;;;;8.13;3.70;;;;;;;-5.36;100.00;94774.06;4978295;28;20049;-47
2021/01/25 02:17:13;;;;;;;7.65;4.00;;;;;;;-5.35;100.00;94768.81;4984541;28;20038;-47
2021/01/25 02:19:47;;;;;;;5.63;3.45;;;;;;;-5.38;100.00;94770.75;4978466;28;20069;-47
2021/01/25 02:22:25;;;;;;;7.25;3.20;;;;;;;-5.29;100.00;94773.59;4982676;28;20458;-46
2021/01/25 02:25:02;;;;;;;11.32;3.70;;;;;;;-5.28;100.00;94762.41;4978214;28;20046;-46
2021/01/25 02:27:32;;;;;;;5.60;3.25;;;;;;;-5.24;100.00;94765.63;4978515;28;20047;-48
2021/01/25 02:29:59;;;;;;;8.45;3.55;;;;;;;-5.20;100.00;94761.94;4973004;28;20109;-45
2021/01/25 02:32:29;;;;;;;6.47;3.13;;;;;;;-5.32;100.00;94754.97;4980215;28;20046;-48
2021/01/25 02:34:56;;;;;;;7.32;3.25;;;;;;;-5.23;100.00;94749.31;4976106;28;20122;-47
2021/01/25 02:37:24;;;;;;;8.27;3.40;;;;;;;-5.24;100.00;94745.06;4984419;28;20057;-48
2021/01/25 02:39:52;;;;;;;10.90;3.40;;;;;;;-5.34;100.00;94749.09;4977677;28;20051;-46
2021/01/25 02:42:19;;;;;;;5.30;3.33;;;;;;;-5.43;100.00;94752.22;4984208;28;20042;-47
2021/01/25 02:44:48;;;;;;;7.45;3.15;;;;;;;-5.51;100.00;94743.22;4980040;28;20058;-46
2021/01/25 02:47:15;;;;;;;6.43;3.00;;;;;;;-5.51;100.00;94742.38;4980672;28;20097;-47
2021/01/25 02:49:43;;;;;;;5.65;3.13;;;;;;;-5.57;100.00;94738.47;4965508;28;20050;-46
2021/01/25 02:52:11;;;;;;;6.32;3.40;;;;;;;-5.54;100.00;94735.72;4974950;28;20047;-45
2021/01/25 02:54:38;;;;;;;5.30;3.40;;;;;;;-5.44;100.00;94732.56;4980111;28;20592;-46
2021/01/25 02:57:07;;;;;;;7.40;3.17;;;;;;;-5.46;100.00;94731.88;4986767;28;20501;-45
2021/01/25 02:59:35;;;;;;;5.30;3.20;;;;;;;-5.61;100.00;94734.41;4981076;28;20469;-46
2021/01/25 03:02:03;;;;;;;4.73;2.80;;;;;;;-5.67;100.00;94726.25;4986622;28;20066;-45
2021/01/25 03:04:30;;;;;;;5.35;3.25;;;;;;;-5.65;100.00;94724.41;4982274;28;20452;-46
2021/01/25 03:06:58;;;;;;;4.47;2.88;;;;;;;-5.73;100.00;94724.84;4992409;28;20409;-47
2021/01/25 03:09:25;;;;;;;6.05;3.03;;;;;;;-5.67;100.00;94716.81;4985082;28;20050;-45
2021/01/25 03:11:53;;;;;;;6.82;3.20;;;;;;;-5.58;100.00;94707.72;4988152;28;20105;-47
2021/01/25 03:14:20;;;;;;;7.47;2.92;;;;;;;-5.41;100.00;94704.16;4973999;28;20101;-45
2021/01/25 03:16:47;;;;;;;7.80;3.35;;;;;;;-5.32;100.00;94696.72;4983029;28;20042;-46
2021/01/25 03:19:15;;;;;;;10.15;3.95;;;;;;;-5.43;100.00;94706.00;4985917;28;20053;-49
2021/01/25 03:21:46;;;;;;;9.50;3.75;;;;;;;-5.49;100.00;94709.75;4985394;28;20532;-46
2021/01/25 03:24:13;;;;;;;7.55;3.65;;;;;;;-5.65;100.00;94709.81;4984575;28;20094;-44
2021/01/25 03:26:40;;;;;;;8.02;3.80;;;;;;;-5.72;100.00;94708.53;4977167;28;20575;-45
2021/01/25 03:29:09;;;;;;;7.95;3.95;;;;;;;-5.79;100.00;94717.50;4986082;28;20046;-46
2021/01/25 03:31:36;;;;;;;9.20;4.50;;;;;;;-5.89;100.00;94717.22;4980004;28;20050;-45
2021/01/25 03:34:04;;;;;;;8.13;3.55;;;;;;;-5.93;100.00;94714.94;4989701;28;20042;-47
2021/01/25 03:36:32;;;;;;;7.35;3.13;;;;;;;-5.87;100.00;94717.13;4982311;28;20101;-47
2021/01/25 03:38:59;;;;;;;11.40;3.72;;;;;;;-6.03;100.00;94707.78;4989916;28;20034;-45
2021/01/25 03:41:26;;;;;;;5.93;3.30;;;;;;;-6.11;100.00;94712.53;4989600;28;20129;-50
2021/01/25 03:43:53;;;;;;;7.47;3.83;;;;;;;-6.23;100.00;94708.09;4978577;28;20510;-45
2021/01/25 03:46:20;;;;;;;8.07;3.72;;;;;;;-6.26;100.00;94706.53;4979835;28;20043;-44
2021/01/25 03:48:47;;;;;;;6.60;3.28;;;;;;;-6.07;100.00;94706.31;4989797;28;20053;-45
2021/01/25 03:51:14;;;;;;;6.93;3.55;;;;;;;-5.75;100.00;94704.44;4985886;28;20049;-45
2021/01/25 03:53:42;;;;;;;6.78;3.70;;;;;;;-5.68;100.00;94701.47;4986082;28;20413;-47
2021/01/25 03:56:09;;;;;;;5.85;3.58;;;;;;;-5.78;100.00;94696.06;4984935;28;20497;-45
2021/01/25 03:58:36;;;;;;;5.57;3.85;;;;;;;-5.79;100.00;94700.38;4976360;28;20094;-46
2021/01/25 04:01:03;;;;;;;8.45;3.95;;;;;;;-5.86;100.00;94693.13;4988268;28;20421;-46
2021/01/25 04:03:30;;;;;;;6.18;3.60;;;;;;;-6.01;100.00;94703.41;4994423;28;20105;-44
2021/01/25 04:05:58;;;;;;;6.63;3.58;;;;;;;-5.96;100.00;94710.81;4982301;28;20035;-45
2021/01/25 04:08:25;;;;;;;6.70;3.65;;;;;;;-6.03;100.00;94707.78;4985467;28;20106;-47
2021/01/25 04:10:53;;;;;;;6.72;3.63;;;;;;;-6.13;100.00;94711.78;4978853;28;20051;-45
2021/01/25 04:13:20;;;;;;;7.75;3.90;;;;;;;-6.17;100.00;94712.06;4983170;28;20065;-47
2021/01/25 04:15:46;;;;;;;7.35;3.60;;;;;;;-6.31;100.00;94718.78;4988144;28;20058;-49
2021/01/25 04:18:14;;;;;;;5.78;3.58;;;;;;;-6.32;100.00;94717.13;4988785;28;20046;-47
2021/01/25 04:20:40;;;;;;;9.23;4.03;;;;;;;-6.26;100.00;94710.84;4984358;28;20107;-45
2021/01/25 04:23:07;;;;;;;5.70;3.50;;;;;;;-6.31;100.00;94716.22;4995522;28;20057;-45
2021/01/25 04:25:35;;;;;;;8.68;3.97;;;;;;;-6.37;100.00;94719.13;4980084;28;20050;-45
2021/01/25 04:28:03;;;;;;;7.63;4.35;;;;;;;-6.24;100.00;94720.09;4986994;28;20633;-48
2021/01/25 04:30:30;;;;;;;8.38;3.42;;;;;;;-6.12;100.00;94721.16;4982325;28;20058;-44
2021/01/25 04:32:57;;;;;;;7.82;3.72;;;;;;;-6.28;100.00;94715.22;4981956;28;20580;-43
2021/01/25 04:35:24;;;;;;;7.85;3.63;;;;;;;-6.48;100.00;94724.84;4984988;28;20046;-46
2021/01/25 04:37:51;;;;;;;7.90;3.70;;;;;;;-6.53;100.00;94726.03;4984554;28;20046;-44
2021/01/25 04:40:18;;;;;;;9.80;4.30;;;;;;;-6.58;100.00;94718.56;4987144;28;20874;-45
2021/01/25 04:42:46;;;;;;;6.68;3.65;;;;;;;-6.59;100.00;94727.19;4987502;28;20540;-46
2021/01/25 04:45:15;;;;;;;7.80;3.70;;;;;;;-6.60;100.00;94728.09;4983445;28;20537;-45
2021/01/25 04:47:47;;;;;;;9.50;3.83;;;;;;;-6.58;100.00;94736.53;4980212;28;20089;-45
2021/01/25 04:50:16;;;;;;;6.13;3.58;;;;;;;-6.63;100.00;94732.56;4989505;28;20113;-45
2021/01/25 04:52:44;;;;;;;5.68;3.67;;;;;;;-6.59;100.00;94744.31;4982970;28;20046;-45
2021/01/25 04:55:12;;;;;;;7.18;3.95;;;;;;;-6.63;100.00;94741.09;4973723;28;20046;-45
2021/01/25 04:57:39;;;;;;;7.72;3.30;;;;;;;-6.31;100.00;94743.59;4984829;28;20044;-49
2021/01/25 05:00:07;;;;;;;6.28;3.90;;;;;;;-6.30;100.00;94742.69;4979198;28;20050;-47
2021/01/25 05:02:37;;;;;;;6.95;3.65;;;;;;;-6.23;100.00;94739.72;4979972;28;20038;-45
2021/01/25 05:05:05;;;;;;;6.60;4.07;;;;;;;-6.28;100.00;94743.44;4986942;28;20533;-46
2021/01/25 05:07:34;;;;;;;8.48;3.90;;;;;;;-6.23;100.00;94741.44;4983114;28;20101;-45
2021/01/25 05:10:01;;;;;;;7.22;3.50;;;;;;;-6.33;100.00;94746.25;4979093;28;20053;-46
2021/01/25 05:12:41;;;;;;;8.60;4.05;;;;;;;-6.29;100.00;94742.63;4986653;28;20058;-45
2021/01/25 05:15:09;;;;;;;8.18;4.32;;;;;;;-6.18;100.00;94741.19;4975729;28;20042;-46
2021/01/25 05:17:37;;;;;;;7.35;3.90;;;;;;;-6.24;100.00;94730.34;4977822;28;20594;-46
2021/01/25 05:20:08;;;;;;;7.50;4.20;;;;;;;-6.18;100.00;94749.69;4985540;28;20073;-52
2021/01/25 05:22:38;;;;;;;7.43;4.18;;;;;;;-6.25;100.00;94748.41;4981204;28;20073;-46
2021/01/25 05:25:09;;;;;;;11.13;4.30;;;;;;;-6.17;100.00;94748.78;4987782;28;20065;-46
2021/01/25 05:27:36;;;;;;;9.43;4.38;;;;;;;-6.01;100.00;94741.06;4986439;28;20118;-45
2021/01/25 05:30:07;;;;;;;8.77;4.22;;;;;;;-6.04;100.00;94734.34;4975613;28;20078;-46
2021/01/25 05:32:45;;;;;;;9.20;4.50;;;;;;;-5.92;100.00;94735.34;4980859;28;20043;-48
2021/01/25 05:35:14;;;;;;;9.18;4.32;;;;;;;-5.78;100.00;94737.97;4972801;28;20686;-46
2021/01/25 05:37:44;;;;;;;7.30;4.47;;;;;;;-5.71;100.00;94730.75;4976682;28;20552;-47
2021/01/25 05:40:15;;;;;;;8.65;4.78;;;;;;;-5.60;100.00;94730.09;4983839;28;20101;-45
2021/01/25 05:42:43;;;;;;;8.23;4.68;;;;;;;-5.54;100.00;94729.72;4975494;28;20050;-46
2021/01/25 05:45:11;;;;;;;12.13;6.68;;;;;;;-5.44;100.00;94730.84;4976574;28;20050;-45
2021/01/25 05:47:47;;;;;;;15.45;7.80;;;;;;;-5.41;100.00;94735.78;4979278;28;20042;-46
2021/01/25 05:50:25;;;;;;;;;;;;;;;-5.34;100.00;94733.69;4971959;28;20171;-45
2021/01/25 05:52:52;;;;;;;14.70;6.78;;;;;;;-5.21;100.00;94726.09;4983918;28;19936;-46
2021/01/25 05:55:19;;;;;;;14.85;6.90;;;;;;;-5.16;100.00;94727.47;4972926;28;20837;-46
2021/01/25 05:57:46;;;;;;;11.48;6.93;;;;;;;-4.99;100.00;94731.56;4981839;28;20088;-49
2021/01/25 06:00:14;;;;;;;11.85;6.30;;;;;;;-4.94;100.00;94729.53;4982287;28;20078;-47
2021/01/25 06:02:46;;;;;;;13.70;6.10;;;;;;;-4.91;100.00;94728.53;4978055;28;20448;-46
2021/01/25 06:05:20;;;;;;;11.93;5.85;;;;;;;-4.83;100.00;94734.84;4979099;28;20108;-46
2021/01/25 06:07:50;;;;;;;10.43;6.00;;;;;;;-4.88;100.00;94759.19;4976076;28;20050;-45
2021/01/25 06:10:21;;;;;;;9.23;4.95;;;;;;;-4.91;100.00;94754.25;4981444;28;20057;-46
2021/01/25 06:13:06;;;;;;;7.65;4.55;;;;;;;-4.77;100.00;94749.91;4974968;28;20091;-47
2021/01/25 06:15:34;;;;;;;7.72;4.47;;;;;;;-4.82;100.00;94743.38;4983487;28;20053;-47
2021/01/25 06:18:00;;;;;;;11.02;4.75;;;;;;;-4.79;100.00;94738.03;4980089;28;20051;-48
2021/01/25 06:20:31;;;;;;;9.65;5.75;;;;;;;-4.65;100.00;94743.16;4980149;28;20082;-45
2021/01/25 06:22:58;;;;;;;10.63;5.60;;;;;;;-4.58;100.00;94757.31;4984254;28;20042;-48
2021/01/25 06:25:26;;;;;;;14.07;6.40;;;;;;;-4.54;100.00;94753.63;4977271;28;20531;-46
2021/01/25 06:27:55;;;;;;;14.63;7.00;;;;;;;-4.45;100.00;94761.66;4988247;28;20060;-48
2021/01/25 06:30:23;;;;;;;15.48;7.55;;;;;;;-4.32;100.00;94765.94;4982449;28;20043;-48
2021/01/25 06:32:51;;;;;;;13.40;7.28;;;;;;;-4.24;100.00;94769.78;4979030;28;20042;-49
2021/01/25 06:35:18;;;;;;;12.57;6.90;;;;;;;-4.23;100.00;94787.72;4980814;28;20042;-45
2021/01/25 06:37:57;;;;;;;10.07;4.68;;;;;;;-4.35;100.00;94794.44;4984413;28;20124;-46
2021/01/25 06:40:29;;;;;;;7.75;4.32;;;;;;;-4.40;100.00;94795.66;4979606;28;20540;-47
2021/01/25 06:42:56;;;;;;;7.50;4.53;;;;;;;-4.35;100.00;94801.34;4983321;28;20046;-45
2021/01/25 06:45:25;;;;;;;9.07;5.22;;;;;;;-4.24;100.00;94798.91;4980768;28;20046;-46
2021/01/25 06:47:52;;;;;;;10.93;5.10;;;;;;;-4.16;100.00;94798.44;4978416;28;20043;-45
2021/01/25 06:50:20;;;;;;;11.05;5.22;;;;;;;-3.90;100.00;94789.88;4981280;28;20039;-45
2021/01/25 06:52:50;;;;;;;18.50;8.43;;;;;;;-3.72;100.00;94787.84;4973291;28;20050;-46
2021/01/25 06:55:18;;;;;;;11.50;5.75;;;;;;;-3.58;100.00;94782.66;4978530;28;20058;-46
2021/01/25 06:57:47;;;;;;;8.02;4.43;;;;;;;-3.62;98.88;94788.09;4984363;28;20524;-46
2021/01/25 07:00:19;;;;;;;7.35;4.60;;;;;;;-3.49;98.00;94780.38;4974746;28;20050;-48
2021/01/25 07:02:54;;;;;;;7.22;5.18;;;;;;;-3.64;99.60;94775.31;4984131;28;20078;-47
2021/01/25 07:05:23;;;;;;;9.27;5.20;;;;;;;-3.79;100.00;94778.06;4970631;28;20130;-51
2021/01/25 07:07:50;;;;;;;11.13;4.90;;;;;;;-3.90;100.00;94783.91;4978386;28;20043;-48
2021/01/25 07:10:20;;;;;;;13.10;5.38;;;;;;;-3.81;100.00;94778.16;4974980;28;20133;-46
2021/01/25 07:12:50;;;;;;;13.05;4.82;;;;;;;-3.69;100.00;94774.78;4982006;28;20039;-46
2021/01/25 07:15:18;;;;;;;;;;;;;;;-3.63;98.88;94771.00;4973059;28;20046;-50
2021/01/25 07:17:47;;;;;;;9.68;5.90;;;;;;;-3.54;98.08;94777.28;4979223;28;19937;-46
2021/01/25 07:20:15;;;;;;;16.47;8.07;;;;;;;-3.36;98.16;94776.06;4975478;28;20130;-46
2021/01/25 07:22:43;;;;;;;13.93;8.02;;;;;;;-3.27;96.02;94779.78;4976636;28;20585;-48
2021/01/25 07:25:11;;;;;;;13.98;7.45;;;;;;;-3.25;95.45;94780.50;4985432;28;20113;-45
2021/01/25 07:27:39;;;;;;;14.85;7.10;;;;;;;-3.14;95.86;94789.16;4979485;28;20050;-48
2021/01/25 07:30:08;;;;;;;14.93;8.07;;;;;;;-3.08;95.10;94805.97;4973036;28;20129;-44
2021/01/25 07:32:35;;;;;;;16.10;8.75;;;;;;;-3.17;96.28;94820.28;4978806;28;20137;-47
2021/01/25 07:35:04;;;;;;;19.85;9.90;;;;;;;-3.07;97.21;94823.09;4968044;28;20138;-48
2021/01/25 07:37:33;;;;;;;20.98;8.68;;;;;;;-2.98;97.50;94814.75;4979643;28;20121;-48
2021/01/25 07:40:01;;;;;;;11.85;6.78;;;;;;;-2.96;96.71;94818.06;4978866;28;20421;-45
2021/01/25 07:42:32;;;;;;;11.45;6.30;;;;;;;-3.20;97.46;94802.47;4989555;28;20039;-47
2021/01/25 07:45:06;;;;;;;11.00;6.00;;;;;;;-3.05;98.39;94803.19;4977687;28;20081;-45
2021/01/25 07:47:33;;;;;;;9.15;5.40;;;;;;;-3.05;98.43;94792.88;4971032;28;20115;-49
2021/01/25 07:50:07;;;;;;;9.18;4.68;;;;;;;-3.03;97.08;94800.50;4977837;28;20047;-47
2021/01/25 07:52:35;;;;;;;7.47;4.43;;;;;;;-3.00;97.51;94795.97;4980776;28;20060;-51
2021/01/25 07:55:10;;;;;;;11.02;6.15;;;;;;;-2.74;96.09;94814.84;4987041;28;20043;-46
2021/01/25 07:57:38;;;;;;;7.55;4.78;;;;;;;-2.58;94.68;94822.38;4982787;28;20133;-46
2021/01/25 08:00:22;;;;;;;5.90;3.20;;;;;;;-2.47;93.03;94819.88;4981263;28;20097;-49
2021/01/25 08:02:54;;;;;;;6.15;3.38;;;;;;;-2.37;92.43;94809.72;4976485;28;20524;-46
2021/01/25 08:05:26;;;;;;;5.68;2.80;;;;;;;-2.28;92.35;94809.06;4982486;28;20053;-45
2021/01/25 08:07:54;;;;;;;5.05;2.83;;;;;;;-2.20;91.74;94817.13;4975131;28;20065;-46
2021/01/25 08:10:22;;;;;;;6.57;2.85;;;;;;;-2.10;91.05;94812.09;4979894;28;20145;-49
2021/01/25 08:12:50;;;;;;;7.00;2.70;;;;;;;-2.15;89.44;94807.28;4986775;28;20048;-47
2021/01/25 08:15:21;;;;;;;3.90;2.40;;;;;;;-2.00;88.34;94801.94;4987201;28;20049;-45
2021/01/25 08:17:51;;;;;;;;;;;;;;;-1.96;89.26;94806.81;4979927;28;20423;-45
2021/01/25 08:20:21;;;;;;;5.72;2.42;;;;;;;-1.82;89.15;94813.56;4981721;28;19921;-47
2021/01/25 08:22:53;;;;;;;8.53;2.70;;;;;;;-1.82;88.20;94815.34;4976020;28;20053;-45
2021/01/25 08:25:22;;;;;;;7.30;2.22;;;;;;;-1.73;89.04;94805.13;4969380;28;20043;-46
2021/01/25 08:27:59;;;;;;;6.47;2.28;;;;;;;-1.85;89.58;94816.38;4982755;28;20520;-45
2021/01/25 08:30:34;;;;;;;7.57;2.85;;;;;;;-1.82;88.92;94800.66;4979767;28;20042;-46
2021/01/25 08:33:02;;;;;;;6.82;3.00;;;;;;;-1.88;90.09;94816.59;4983047;28;20501;-45
2021/01/25 08:35:33;;;;;;;8.52;2.50;;;;;;;-2.16;93.21;94823.72;4963384;28;20047;-45
2021/01/25 08:38:10;;;;;;;;;;;;;;;-2.29;95.44;94804.84;4988753;28;20564;-49
2021/01/25 08:40:39;;;;;;;4.63;2.17;;;;;;;-2.40;96.01;94813.34;4982670;28;19961;-46
2021/01/25 08:43:18;;;;;;;4.20;1.42;;;;;;;-2.54;99.15;94838.47;4981962;28;20513;-47
2021/01/25 08:45:47;;;;;;;3.58;2.05;;;;;;;-2.45;100.00;94814.59;4971283;28;20061;-48
2021/01/25 08:48:14;;;;;;;6.65;2.10;;;;;;;-2.55;100.00;94816.16;4984392;28;20109;-47
2021/01/25 08:50:42;;;;;;;7.47;2.47;;;;;;;-2.59;100.00;94820.69;4983297;28;20046;-46
2021/01/25 08:53:30;;;;;;;4.22;2.20;;;;;;;-2.28;100.00;94826.31;4964877;28;20049;-48
2021/01/25 08:55:58;;;;;;;5.75;2.25;;;;;;;-2.35;100.00;94836.25;4980537;28;20050;-45
2021/01/25 08:58:27;;;;;;;4.72;2.28;;;;;;;-2.28;100.00;94826.31;4965972;28;20088;-45
2021/01/25 09:00:56;;;;;;;7.63;2.45;;;;;;;-2.09;100.00;94828.44;4966811;28;20409;-47
2021/01/25 09:03:24;;;;;;;8.68;2.60;;;;;;;-2.30;100.00;94836.75;4977917;28;20090;-47
2021/01/25 09:05:52;;;;;;;5.43;2.65;;;;;;;-2.22;100.00;94847.38;4976894;28;20054;-50
2021/01/25 09:08:19;;;;;;;4.63;2.40;;;;;;;-2.00;100.00;94843.28;4979386;28;20045;-51
2021/01/25 09:10:46;;;;;;;4.65;2.20;;;;;;;-1.83;100.00;94842.06;4983353;28;20042;-47
2021/01/25 09:13:14;;;;;;;5.35;2.28;;;;;;;-1.98;100.00;94844.81;4980992;28;20125;-48
2021/01/25 09:15:41;;;;;;;8.55;2.70;;;;;;;-2.17;100.00;94845.31;4984999;28;20030;-48
2021/01/25 09:18:11;;;;;;;8.25;3.72;;;;;;;-2.02;100.00;94850.31;4980713;28;20544;-47
2021/01/25 09:20:39;;;;;;;7.20;4.85;;;;;;;-1.70;100.00;94854.00;4975980;28;20077;-47
2021/01/25 09:23:07;;;;;;;7.97;2.95;;;;;;;-1.69;98.86;94853.09;4959739;28;20569;-46
2021/01/25 09:25:34;;;;;;;7.97;2.60;;;;;;;-1.36;97.70;94850.75;4973858;28;20501;-47
2021/01/25 09:28:01;;;;;;;4.68;2.15;;;;;;;-1.42;94.54;94848.59;4982416;28;20046;-46
2021/01/25 09:30:30;;;;;;;5.32;2.50;;;;;;;-1.16;94.17;94846.72;4973542;28;20054;-50
2021/01/25 09:33:16;;;;;;;6.68;3.08;;;;;;;-1.09;93.86;94851.31;4978197;28;20042;-48
2021/01/25 09:35:44;;;;;;;7.68;2.70;;;;;;;-1.29;94.31;94855.34;4976661;28;20055;-47
2021/01/25 09:38:30;;;;;;;5.05;2.67;;;;;;;-1.02;94.74;94855.09;4977162;28;20042;-45
2021/01/25 09:40:57;;;;;;;4.97;2.42;;;;;;;-0.84;93.00;94855.47;4981928;28;20057;-46
2021/01/25 09:43:24;;;;;;;5.40;2.13;;;;;;;-0.58;91.21;94860.47;4983791;28;20056;-47
2021/01/25 09:45:52;;;;;;;4.63;2.10;;;;;;;-0.71;92.03;94855.38;4975054;28;20042;-46
2021/01/25 09:48:20;;;;;;;4.22;1.80;;;;;;;-0.40;90.85;94863.41;4980377;28;20705;-49
2021/01/25 09:50:47;;;;;;;6.15;2.40;;;;;;;-0.38;89.70;94866.69;4984957;28;20508;-46
2021/01/25 09:53:15;;;;;;;5.82;2.72;;;;;;;-0.22;89.55;94861.16;4977401;28;20046;-48
2021/01/25 09:55:42;;;;;;;6.65;2.72;;;;;;;-0.11;88.82;94869.75;4984989;28;20039;-47
2021/01/25 09:58:27;;;;;;;6.75;2.58;;;;;;;-0.29;88.62;94869.41;4984136;28;20065;-47
2021/01/25 10:00:54;;;;;;;4.57;2.30;;;;;;;-0.26;89.06;94866.59;4981852;28;20081;-47
2021/01/25 10:03:22;;;;;;;4.20;2.30;;;;;;;-0.77;92.26;94876.53;4976758;28;20050;-45
2021/01/25 10:05:50;;;;;;;8.20;2.78;;;;;;;-0.73;93.09;94875.38;4976686;28;20058;-45
2021/01/25 10:08:17;;;;;;;6.95;2.90;;;;;;;-0.69;93.41;94870.78;4974469;28;20039;-46
2021/01/25 10:10:44;;;;;;;4.20;2.35;;;;;;;-0.84;94.21;94880.53;4968857;28;20146;-45
2021/01/25 10:13:12;;;;;;;3.83;2.20;;;;;;;-0.94;94.27;94882.16;4984255;28;20039;-47
2021/01/25 10:15:39;;;;;;;5.43;2.40;;;;;;;-0.80;95.22;94881.94;4986768;28;20041;-45
2021/01/25 10:18:08;;;;;;;5.85;2.00;;;;;;;-0.51;95.03;94888.34;4973656;28;20042;-46
2021/01/25 10:20:43;;;;;;;3.42;2.20;;;;;;;-0.69;93.32;94887.13;4974161;28;20117;-45
2021/01/25 10:23:10;;;;;;;6.20;2.13;;;;;;;-0.62;93.88;94880.59;4984859;28;20039;-48
2021/01/25 10:25:37;;;;;;;4.78;2.28;;;;;;;-0.27;90.84;94890.03;4976981;28;20539;-45
2021/01/25 10:28:05;;;;;;;4.25;2.55;;;;;;;-0.14;90.38;94888.13;4977119;28;20046;-48
2021/01/25 10:30:32;;;;;;;6.50;2.05;;;;;;;0.13;88.28;94882.56;4981452;28;20046;-46
2021/01/25 10:33:00;;;;;;;4.93;2.30;;;;;;;-0.16;88.41;94891.78;4972874;28;20493;-46
2021/01/25 10:35:31;;;;;;;6.28;2.30;;;;;;;-0.14;88.24;94895.88;4982263;28;20056;-45
2021/01/25 10:38:00;;;;;;;3.72;2.20;;;;;;;0.02;88.64;94892.94;4978592;28;20047;-47
2021/01/25 10:40:27;;;;;;;3.13;2.15;;;;;;;0.21;85.95;94900.94;4978742;28;20049;-50
2021/01/25 10:42:56;;;;;;;7.13;2.15;;;;;;;0.30;86.08;94890.78;4981106;28;20038;-48
2021/01/25 10:45:23;;;;;;;8.23;2.00;;;;;;;0.49;86.26;94895.34;4983912;28;20073;-46
2021/01/25 10:47:53;;;;;;;4.90;1.92;;;;;;;0.84;84.37;94902.91;4980814;28;20316;-46
2021/01/25 10:50:21;;;;;;;5.70;2.33;;;;;;;1.33;81.04;94891.09;4979953;28;20535;-46
2021/01/25 10:52:49;;;;;;;4.32;2.17;;;;;;;1.58;79.16;94892.47;4977498;28;20056;-46
2021/01/25 10:55:17;;;;;;;7.50;2.47;;;;;;;1.41;78.99;94896.47;4978356;28;20058;-48
2021/01/25 10:57:45;;;;;;;7.40;2.60;;;;;;;1.09;80.52;94899.13;4982662;28;20046;-46
2021/01/25 11:00:14;;;;;;;6.28;2.10;;;;;;;0.99;81.11;94901.66;4975251;28;20043;-48
2021/01/25 11:02:41;;;;;;;3.33;2.28;;;;;;;0.59;83.65;94904.88;4976303;28;20049;-46
2021/01/25 11:05:10;;;;;;;4.65;2.22;;;;;;;0.31;85.63;94902.78;4957616;28;20050;-47
2021/01/25 11:07:38;;;;;;;8.35;2.00;;;;;;;0.41;85.77;94912.34;4976780;28;20051;-46
2021/01/25 11:10:08;;;;;;;4.03;2.20;;;;;;;-0.04;87.99;94916.72;4979294;28;20043;-47
2021/01/25 11:12:36;;;;;;;4.30;2.00;;;;;;;0.50;86.40;94910.78;4978808;28;20046;-46
2021/01/25 11:15:04;;;;;;;5.43;1.98;;;;;;;0.92;83.74;94913.47;4974528;28;20649;-46
2021/01/25 11:17:32;;;;;;;8.38;2.40;;;;;;;0.97;83.12;94924.31;4976761;28;20498;-45
2021/01/25 11:20:00;;;;;;;6.70;2.33;;;;;;;1.29;81.65;94915.66;4976610;28;20439;-47
2021/01/25 11:22:27;;;;;;;3.88;2.00;;;;;;;1.50;80.81;94915.66;4985093;28;20101;-48
2021/01/25 11:24:56;;;;;;;4.85;2.20;;;;;;;1.54;80.34;94922.25;4977451;28;20046;-47
2021/01/25 11:27:23;;;;;;;7.05;2.42;;;;;;;1.49;80.05;94921.81;4981608;28;20656;-46
2021/01/25 11:29:51;;;;;;;6.97;2.30;;;;;;;1.31;81.86;94930.19;4978812;28;20054;-45
2021/01/25 11:32:20;;;;;;;9.05;2.20;;;;;;;1.07;81.28;94922.63;4983027;28;20061;-47
2021/01/25 11:34:48;;;;;;;6.32;2.10;;;;;;;1.53;81.53;94931.81;4983072;28;20050;-45
2021/01/25 11:37:15;;;;;;;10.02;2.80;;;;;;;1.57;80.27;94933.22;4978777;28;20046;-45